createdAt,value
2015-07-07T00:00:11.994Z,23.5
2015-07-07T00:00:30.229Z,23.5
2015-07-07T00:00:48.466Z,23.5
2015-07-07T00:01:06.716Z,23.5
2015-07-07T00:01:24.950Z,23.6
2015-07-07T00:01:43.185Z,23.5
2015-07-07T00:02:01.421Z,23.5
2015-07-07T00:02:19.656Z,23.6
2015-07-07T00:02:37.906Z,23.5
2015-07-07T00:02:56.142Z,23.4
2015-07-07T00:03:14.376Z,23.3
2015-07-07T00:03:32.611Z,23.3
2015-07-07T00:03:50.847Z,23.4
2015-07-07T00:04:09.081Z,23.3
2015-07-07T00:04:27.316Z,23
2015-07-07T00:04:45.550Z,23
2015-07-07T00:05:03.787Z,23.1
2015-07-07T00:05:22.021Z,23.2
2015-07-07T00:05:40.255Z,23.2
2015-07-07T00:05:58.492Z,23.3
2015-07-07T00:06:16.726Z,23.4
2015-07-07T00:06:34.976Z,23.5
2015-07-07T00:06:53.195Z,23.5
2015-07-07T00:07:11.446Z,23.4
2015-07-07T00:07:29.680Z,23.3
2015-07-07T00:07:47.915Z,23.3
2015-07-07T00:08:06.151Z,23.2
2015-07-07T00:08:24.385Z,23
2015-07-07T00:08:42.620Z,23
2015-07-07T00:09:00.873Z,22.8
2015-07-07T00:09:19.107Z,22.7
2015-07-07T00:09:37.341Z,22.7
2015-07-07T00:09:55.591Z,22.5
2015-07-07T00:10:13.828Z,22.4
2015-07-07T00:10:32.062Z,22.6
2015-07-07T00:10:50.297Z,22.6
2015-07-07T00:11:08.532Z,22.7
2015-07-07T00:11:26.766Z,22.8
2015-07-07T00:11:45.001Z,22.8
2015-07-07T00:12:03.237Z,22.8
2015-07-07T00:12:21.471Z,23
2015-07-07T00:12:39.706Z,23
2015-07-07T00:12:57.940Z,23.1
2015-07-07T00:13:16.192Z,23.1
2015-07-07T00:13:34.427Z,23.1
2015-07-07T00:13:52.661Z,23.1
2015-07-07T00:14:10.897Z,23.2
2015-07-07T00:14:29.132Z,23.1
2015-07-07T00:14:47.366Z,23.1
2015-07-07T00:15:05.602Z,23.2
2015-07-07T00:15:23.837Z,23.2
2015-07-07T00:15:42.071Z,23.2
2015-07-07T00:16:00.321Z,23.4
2015-07-07T00:16:18.559Z,23.5
2015-07-07T00:16:36.793Z,23.4
2015-07-07T00:16:55.043Z,23.1
2015-07-07T00:17:13.278Z,23.1
2015-07-07T00:17:31.513Z,23.2
2015-07-07T00:17:49.763Z,23.1
2015-07-07T00:18:07.997Z,23.1
2015-07-07T00:18:26.233Z,23.1
2015-07-07T00:18:44.468Z,23.1
2015-07-07T00:19:02.702Z,23.1
2015-07-07T00:19:20.939Z,23.1
2015-07-07T00:19:39.189Z,23.1
2015-07-07T00:19:57.423Z,23.1
2015-07-07T00:20:15.673Z,23.1
2015-07-07T00:20:33.910Z,23.1
2015-07-07T00:20:52.145Z,23.1
2015-07-07T00:21:10.395Z,23.1
2015-07-07T00:21:28.631Z,23.1
2015-07-07T00:21:46.865Z,23.1
2015-07-07T00:22:05.100Z,23.2
2015-07-07T00:22:23.350Z,23.3
2015-07-07T00:22:41.585Z,23.3
2015-07-07T00:22:59.835Z,23.4
2015-07-07T00:23:18.085Z,23.4
2015-07-07T00:23:36.323Z,23.3
2015-07-07T00:23:54.557Z,23.3
2015-07-07T00:24:12.791Z,23.3
2015-07-07T00:24:31.027Z,23.3
2015-07-07T00:24:49.261Z,23.4
2015-07-07T00:25:07.495Z,23.3
2015-07-07T00:25:25.745Z,23.3
2015-07-07T00:25:43.983Z,23.3
2015-07-07T00:26:02.217Z,23.3
2015-07-07T00:26:20.467Z,23.3
2015-07-07T00:26:38.703Z,23.3
2015-07-07T00:26:56.937Z,23.3
2015-07-07T00:27:15.171Z,23.3
2015-07-07T00:27:33.408Z,23.4
2015-07-07T00:27:51.642Z,23.2
2015-07-07T00:28:09.876Z,23.2
2015-07-07T00:28:28.111Z,23.1
2015-07-07T00:28:46.348Z,23.2
2015-07-07T00:29:04.583Z,23.2
2015-07-07T00:29:22.817Z,23.3
2015-07-07T00:29:41.052Z,23.3
2015-07-07T00:29:59.302Z,23.2
2015-07-07T00:30:17.552Z,23.2
2015-07-07T00:30:35.789Z,23.2
2015-07-07T00:30:54.023Z,23.2
2015-07-07T00:31:12.257Z,23.2
2015-07-07T00:31:30.492Z,23.2
2015-07-07T00:31:48.744Z,23.1
2015-07-07T00:32:06.978Z,23.1
2015-07-07T00:32:25.213Z,23.1
2015-07-07T00:32:43.449Z,23.1
2015-07-07T00:33:01.683Z,23.1
2015-07-07T00:33:19.918Z,23.1
2015-07-07T00:33:38.170Z,23
2015-07-07T00:33:56.388Z,23
2015-07-07T00:34:14.638Z,22.9
2015-07-07T00:34:32.873Z,22.9
2015-07-07T00:34:51.109Z,23
2015-07-07T00:35:09.359Z,22.9
2015-07-07T00:35:27.594Z,23
2015-07-07T00:35:45.830Z,23
2015-07-07T00:36:04.064Z,23.1
2015-07-07T00:36:22.314Z,23.1
2015-07-07T00:36:40.549Z,23
2015-07-07T00:36:58.785Z,23
2015-07-07T00:37:17.019Z,22.9
2015-07-07T00:37:35.254Z,22.9
2015-07-07T00:37:53.489Z,22.9
2015-07-07T00:38:11.724Z,22.9
2015-07-07T00:38:29.958Z,22.8
2015-07-07T00:38:48.195Z,22.7
2015-07-07T00:39:06.430Z,22.5
2015-07-07T00:39:24.664Z,22.5
2015-07-07T00:39:42.898Z,22.6
2015-07-07T00:40:01.163Z,22.7
2015-07-07T00:40:19.398Z,22.7
2015-07-07T00:40:37.632Z,22.7
2015-07-07T00:40:55.917Z,22.8
2015-07-07T00:41:14.151Z,22.8
2015-07-07T00:41:32.401Z,22.8
2015-07-07T00:41:50.635Z,22.7
2015-07-07T00:42:08.914Z,22.7
2015-07-07T00:42:27.148Z,22.8
2015-07-07T00:42:45.382Z,22.8
2015-07-07T00:43:03.667Z,22.8
2015-07-07T00:43:21.917Z,22.7
2015-07-07T00:43:40.151Z,22.7
2015-07-07T00:43:58.386Z,22.6
2015-07-07T00:44:16.664Z,22.4
2015-07-07T00:44:34.914Z,22.5
2015-07-07T00:44:53.148Z,22.5
2015-07-07T00:45:11.411Z,22.4
2015-07-07T00:45:29.645Z,22.5
2015-07-07T00:45:47.879Z,22.5
2015-07-07T00:46:06.131Z,22.4
2015-07-07T00:46:24.365Z,22.3
2015-07-07T00:46:42.600Z,22.3
2015-07-07T00:47:00.834Z,22.3
2015-07-07T00:47:19.084Z,22.3
2015-07-07T00:47:37.319Z,22.3
2015-07-07T00:47:55.553Z,22.2
2015-07-07T00:48:13.804Z,22.1
2015-07-07T00:48:32.054Z,22.2
2015-07-07T00:48:50.289Z,22.3
2015-07-07T00:49:08.541Z,22.4
2015-07-07T00:49:26.791Z,22.5
2015-07-07T00:49:45.026Z,22.6
2015-07-07T00:50:03.260Z,22.7
2015-07-07T00:50:21.520Z,22.7
2015-07-07T00:50:39.754Z,22.8
2015-07-07T00:50:57.989Z,22.7
2015-07-07T00:51:16.231Z,22.7
2015-07-07T00:51:34.465Z,22.8
2015-07-07T00:51:52.700Z,22.7
2015-07-07T00:52:10.941Z,22.9
2015-07-07T00:52:29.176Z,22.9
2015-07-07T00:52:47.410Z,23
2015-07-07T00:53:05.644Z,23
2015-07-07T00:53:23.887Z,22.8
2015-07-07T00:53:42.121Z,22.8
2015-07-07T00:54:00.371Z,22.9
2015-07-07T00:54:18.612Z,22.9
2015-07-07T00:54:36.847Z,22.9
2015-07-07T00:54:55.097Z,22.8
2015-07-07T00:55:13.335Z,22.8
2015-07-07T00:55:31.570Z,22.5
2015-07-07T00:55:49.820Z,22.6
2015-07-07T00:56:08.054Z,22.6
2015-07-07T00:56:26.293Z,22.5
2015-07-07T00:56:44.543Z,22.7
2015-07-07T00:57:02.778Z,22.7
2015-07-07T00:57:21.015Z,22.7
2015-07-07T00:57:39.249Z,22.7
2015-07-07T00:57:57.499Z,22.7
2015-07-07T00:58:15.734Z,22.7
2015-07-07T00:58:33.972Z,22.7
2015-07-07T00:58:52.207Z,22.7
2015-07-07T00:59:10.441Z,22.9
2015-07-07T00:59:28.680Z,23
2015-07-07T00:59:46.915Z,23
2015-07-07T01:00:05.133Z,23
2015-07-07T01:00:23.368Z,22.9
2015-07-07T01:00:41.605Z,23
2015-07-07T01:00:59.840Z,23
2015-07-07T01:01:18.074Z,22.8
2015-07-07T01:01:36.327Z,22.7
2015-07-07T01:01:54.546Z,22.8
2015-07-07T01:02:12.796Z,22.8
2015-07-07T01:02:31.030Z,22.8
2015-07-07T01:02:49.267Z,22.8
2015-07-07T01:03:07.502Z,22.9
2015-07-07T01:03:25.736Z,22.9
2015-07-07T01:03:43.974Z,22.9
2015-07-07T01:04:02.224Z,22.9
2015-07-07T01:04:20.458Z,22.9
2015-07-07T01:04:38.692Z,22.8
2015-07-07T01:04:56.929Z,22.7
2015-07-07T01:05:15.179Z,22.7
2015-07-07T01:05:33.413Z,22.7
2015-07-07T01:05:51.650Z,22.7
2015-07-07T01:06:09.885Z,22.7
2015-07-07T01:06:28.119Z,22.7
2015-07-07T01:06:46.354Z,22.8
2015-07-07T01:07:04.590Z,22.8
2015-07-07T01:07:22.824Z,22.8
2015-07-07T01:07:41.059Z,22.8
2015-07-07T01:07:59.312Z,22.8
2015-07-07T01:08:17.562Z,22.7
2015-07-07T01:08:35.796Z,22.7
2015-07-07T01:08:54.032Z,22.7
2015-07-07T01:09:12.267Z,22.8
2015-07-07T01:09:30.501Z,22.9
2015-07-07T01:09:48.736Z,22.9
2015-07-07T01:10:06.972Z,22.9
2015-07-07T01:10:25.222Z,23
2015-07-07T01:10:43.456Z,23
2015-07-07T01:11:01.692Z,23
2015-07-07T01:11:19.926Z,23
2015-07-07T01:11:38.160Z,23
2015-07-07T01:11:56.398Z,23
2015-07-07T01:12:14.632Z,23
2015-07-07T01:12:32.851Z,23
2015-07-07T01:12:51.101Z,23
2015-07-07T01:13:09.322Z,22.9
2015-07-07T01:13:27.572Z,23
2015-07-07T01:13:45.806Z,22.9
2015-07-07T01:14:04.042Z,22.9
2015-07-07T01:14:22.277Z,22.7
2015-07-07T01:14:40.511Z,22.4
2015-07-07T01:14:58.748Z,22.5
2015-07-07T01:15:16.982Z,22.6
2015-07-07T01:15:35.216Z,22.6
2015-07-07T01:15:53.451Z,22.6
2015-07-07T01:16:11.686Z,22.7
2015-07-07T01:16:29.936Z,22.7
2015-07-07T01:16:48.170Z,22.7
2015-07-07T01:17:06.408Z,22.8
2015-07-07T01:17:24.642Z,22.9
2015-07-07T01:17:42.877Z,22.8
2015-07-07T01:18:01.129Z,22.7
2015-07-07T01:18:19.363Z,22.4
2015-07-07T01:18:37.597Z,22.2
2015-07-07T01:18:55.832Z,22.1
2015-07-07T01:19:14.067Z,22.1
2015-07-07T01:19:32.301Z,21.9
2015-07-07T01:19:50.536Z,21.7
2015-07-07T01:20:08.772Z,21.5
2015-07-07T01:20:27.007Z,21.5
2015-07-07T01:20:45.241Z,21.5
2015-07-07T01:21:03.493Z,21.5
2015-07-07T01:21:21.727Z,21.6
2015-07-07T01:21:39.962Z,21.7
2015-07-07T01:21:58.196Z,21.9
2015-07-07T01:22:16.432Z,22
2015-07-07T01:22:34.667Z,22.1
2015-07-07T01:22:52.901Z,22.2
2015-07-07T01:23:11.138Z,22.3
2015-07-07T01:23:29.388Z,22.4
2015-07-07T01:23:47.622Z,22.2
2015-07-07T01:24:05.856Z,22.2
2015-07-07T01:24:24.094Z,22.2
2015-07-07T01:24:42.328Z,22.2
2015-07-07T01:25:00.562Z,22.3
2015-07-07T01:25:18.813Z,22.2
2015-07-07T01:25:37.048Z,22.1
2015-07-07T01:25:55.282Z,22.1
2015-07-07T01:26:13.517Z,22.1
2015-07-07T01:26:31.753Z,22.3
2015-07-07T01:26:49.987Z,22.3
2015-07-07T01:27:08.222Z,22.3
2015-07-07T01:27:26.458Z,22.3
2015-07-07T01:27:44.708Z,22.4
2015-07-07T01:28:02.942Z,22.2
2015-07-07T01:28:21.210Z,22.3
2015-07-07T01:28:39.429Z,22.2
2015-07-07T01:28:57.663Z,22
2015-07-07T01:29:15.898Z,22
2015-07-07T01:29:34.134Z,21.9
2015-07-07T01:29:52.368Z,21.8
2015-07-07T01:30:10.618Z,21.8
2015-07-07T01:30:28.855Z,21.8
2015-07-07T01:30:47.089Z,21.6
2015-07-07T01:31:05.323Z,21.7
2015-07-07T01:31:23.560Z,21.7
2015-07-07T01:31:41.810Z,21.7
2015-07-07T01:32:00.044Z,21.7
2015-07-07T01:32:18.279Z,21.7
2015-07-07T01:32:36.531Z,21.8
2015-07-07T01:32:54.765Z,21.7
2015-07-07T01:33:12.999Z,21.6
2015-07-07T01:33:31.237Z,21.4
2015-07-07T01:33:49.471Z,21.6
2015-07-07T01:34:07.705Z,21.5
2015-07-07T01:34:25.941Z,21.5
2015-07-07T01:34:44.175Z,21.6
2015-07-07T01:35:02.425Z,21.9
2015-07-07T01:35:20.660Z,22
2015-07-07T01:35:38.896Z,22
2015-07-07T01:35:57.115Z,22
2015-07-07T01:36:15.349Z,22
2015-07-07T01:36:33.585Z,22
2015-07-07T01:36:51.820Z,22.1
2015-07-07T01:37:10.070Z,22.1
2015-07-07T01:37:28.305Z,21.9
2015-07-07T01:37:46.540Z,21.8
2015-07-07T01:38:04.774Z,21.9
2015-07-07T01:38:23.008Z,22
2015-07-07T01:38:41.246Z,22
2015-07-07T01:38:59.480Z,22.2
2015-07-07T01:39:17.714Z,22.2
2015-07-07T01:39:35.966Z,22.2
2015-07-07T01:39:54.185Z,22.3
2015-07-07T01:40:12.435Z,22.3
2015-07-07T01:40:30.672Z,22.3
2015-07-07T01:40:48.906Z,22.1
2015-07-07T01:41:07.140Z,22
2015-07-07T01:41:25.375Z,22
2015-07-07T01:41:43.611Z,22
2015-07-07T01:42:01.845Z,22
2015-07-07T01:42:20.080Z,21.9
2015-07-07T01:42:38.316Z,21.8
2015-07-07T01:42:56.551Z,21.6
2015-07-07T01:43:14.785Z,21.5
2015-07-07T01:43:33.035Z,21.5
2015-07-07T01:43:51.270Z,21.5
2015-07-07T01:44:09.505Z,21.5
2015-07-07T01:44:27.739Z,21.6
2015-07-07T01:44:45.976Z,21.4
2015-07-07T01:45:04.226Z,21.5
2015-07-07T01:45:22.461Z,21.6
2015-07-07T01:45:40.696Z,21.8
2015-07-07T01:45:58.946Z,21.9
2015-07-07T01:46:17.196Z,21.9
2015-07-07T01:46:35.431Z,21.9
2015-07-07T01:46:53.668Z,21.9
2015-07-07T01:47:11.902Z,21.8
2015-07-07T01:47:30.137Z,21.7
2015-07-07T01:47:48.373Z,21.7
2015-07-07T01:48:06.607Z,21.6
2015-07-07T01:48:24.857Z,21.5
2015-07-07T01:48:43.092Z,21.4
2015-07-07T01:49:01.327Z,21.5
2015-07-07T01:49:19.562Z,21.5
2015-07-07T01:49:37.796Z,21.4
2015-07-07T01:49:56.033Z,21.3
2015-07-07T01:50:14.268Z,21.4
2015-07-07T01:50:32.502Z,21.3
2015-07-07T01:50:50.736Z,21.2
2015-07-07T01:51:08.973Z,21.3
2015-07-07T01:51:27.207Z,21.2
2015-07-07T01:51:45.457Z,21.2
2015-07-07T01:52:03.694Z,21.3
2015-07-07T01:52:21.928Z,21.3
2015-07-07T01:52:40.162Z,21.3
2015-07-07T01:52:58.412Z,21.2
2015-07-07T01:53:16.649Z,21.1
2015-07-07T01:53:34.883Z,21.1
2015-07-07T01:53:53.117Z,21
2015-07-07T01:54:11.354Z,20.9
2015-07-07T01:54:29.588Z,20.9
2015-07-07T01:54:47.823Z,21
2015-07-07T01:55:06.059Z,20.9
2015-07-07T01:55:24.293Z,20.9
2015-07-07T01:55:42.528Z,20.9
2015-07-07T01:56:00.762Z,20.9
2015-07-07T01:56:18.997Z,20.9
2015-07-07T01:56:37.232Z,20.9
2015-07-07T01:56:55.466Z,20.9
2015-07-07T01:57:13.718Z,20.9
2015-07-07T01:57:31.953Z,20.9
2015-07-07T01:57:50.187Z,20.9
2015-07-07T01:58:08.440Z,20.8
2015-07-07T01:58:26.674Z,20.7
2015-07-07T01:58:44.924Z,20.6
2015-07-07T01:59:03.159Z,20.7
2015-07-07T01:59:21.394Z,20.7
2015-07-07T01:59:39.644Z,20.7
2015-07-07T01:59:57.878Z,20.8
2015-07-07T02:00:16.115Z,20.8
2015-07-07T02:00:34.349Z,20.9
2015-07-07T02:00:52.584Z,21
2015-07-07T02:01:10.820Z,21
2015-07-07T02:01:29.070Z,21
2015-07-07T02:01:47.304Z,20.9
2015-07-07T02:02:05.539Z,20.9
2015-07-07T02:02:23.775Z,20.9
2015-07-07T02:02:42.009Z,20.9
2015-07-07T02:03:00.244Z,20.8
2015-07-07T02:03:18.480Z,20.7
2015-07-07T02:03:36.730Z,20.6
2015-07-07T02:03:54.965Z,20.7
2015-07-07T02:04:13.199Z,20.7
2015-07-07T02:04:31.435Z,20.9
2015-07-07T02:04:49.670Z,20.9
2015-07-07T02:05:07.904Z,20.8
2015-07-07T02:05:26.156Z,20.7
2015-07-07T02:05:44.390Z,20.9
2015-07-07T02:06:02.625Z,21
2015-07-07T02:06:20.861Z,20.9
2015-07-07T02:06:39.096Z,20.9
2015-07-07T02:06:57.330Z,20.9
2015-07-07T02:07:15.564Z,20.9
2015-07-07T02:07:33.816Z,20.9
2015-07-07T02:07:52.051Z,20.8
2015-07-07T02:08:10.285Z,20.8
2015-07-07T02:08:28.521Z,20.7
2015-07-07T02:08:46.756Z,20.6
2015-07-07T02:09:05.006Z,20.6
2015-07-07T02:09:23.242Z,20.6
2015-07-07T02:09:41.477Z,20.8
2015-07-07T02:09:59.711Z,20.8
2015-07-07T02:10:17.945Z,20.7
2015-07-07T02:10:36.182Z,20.7
2015-07-07T02:10:54.416Z,20.8
2015-07-07T02:11:12.650Z,20.9
2015-07-07T02:11:30.887Z,20.7
2015-07-07T02:11:49.121Z,20.7
2015-07-07T02:12:07.356Z,20.7
2015-07-07T02:12:25.608Z,20.8
2015-07-07T02:12:43.842Z,20.9
2015-07-07T02:13:02.061Z,21
2015-07-07T02:13:20.311Z,21
2015-07-07T02:13:38.563Z,21
2015-07-07T02:13:56.797Z,21.1
2015-07-07T02:14:15.031Z,21.1
2015-07-07T02:14:33.267Z,21
2015-07-07T02:14:51.501Z,21
2015-07-07T02:15:09.736Z,21
2015-07-07T02:15:27.973Z,20.9
2015-07-07T02:15:46.207Z,21
2015-07-07T02:16:04.442Z,21
2015-07-07T02:16:22.676Z,20.9
2015-07-07T02:16:40.912Z,20.8
2015-07-07T02:16:59.147Z,20.9
2015-07-07T02:17:17.381Z,21
2015-07-07T02:17:35.617Z,21.1
2015-07-07T02:17:53.851Z,21
2015-07-07T02:18:12.085Z,21
2015-07-07T02:18:30.323Z,21.1
2015-07-07T02:18:48.557Z,21.1
2015-07-07T02:19:06.791Z,20.9
2015-07-07T02:19:25.041Z,20.9
2015-07-07T02:19:43.278Z,21
2015-07-07T02:20:01.512Z,21
2015-07-07T02:20:19.747Z,20.9
2015-07-07T02:20:37.998Z,20.9
2015-07-07T02:20:56.216Z,20.8
2015-07-07T02:21:14.466Z,20.7
2015-07-07T02:21:32.704Z,20.8
2015-07-07T02:21:50.938Z,20.8
2015-07-07T02:22:09.172Z,20.7
2015-07-07T02:22:27.422Z,20.8
2015-07-07T02:22:45.643Z,20.7
2015-07-07T02:23:03.893Z,20.7
2015-07-07T02:23:22.128Z,20.8
2015-07-07T02:23:40.363Z,20.7
2015-07-07T02:23:58.597Z,20.7
2015-07-07T02:24:16.832Z,20.7
2015-07-07T02:24:35.069Z,20.7
2015-07-07T02:24:53.303Z,20.7
2015-07-07T02:25:11.538Z,20.7
2015-07-07T02:25:29.788Z,20.7
2015-07-07T02:25:48.023Z,20.6
2015-07-07T02:26:06.258Z,20.6
2015-07-07T02:26:24.492Z,20.7
2015-07-07T02:26:42.745Z,20.8
2015-07-07T02:27:00.979Z,20.8
2015-07-07T02:27:19.229Z,20.7
2015-07-07T02:27:37.464Z,20.8
2015-07-07T02:27:55.715Z,20.9
2015-07-07T02:28:13.933Z,21
2015-07-07T02:28:32.168Z,21
2015-07-07T02:28:50.420Z,21.1
2015-07-07T02:29:08.654Z,21
2015-07-07T02:29:26.889Z,20.9
2015-07-07T02:29:45.123Z,20.8
2015-07-07T02:30:03.203Z,20.9
2015-07-07T02:30:21.297Z,20.9
2015-07-07T02:30:39.531Z,20.9
2015-07-07T02:30:57.768Z,20.9
2015-07-07T02:31:16.018Z,20.9
2015-07-07T02:31:34.268Z,20.8
2015-07-07T02:31:52.502Z,20.8
2015-07-07T02:32:10.738Z,20.7
2015-07-07T02:32:28.973Z,20.7
2015-07-07T02:32:47.207Z,20.9
2015-07-07T02:33:05.443Z,20.9
2015-07-07T02:33:23.678Z,20.8
2015-07-07T02:33:41.928Z,20.9
2015-07-07T02:34:00.181Z,20.9
2015-07-07T02:34:18.415Z,21
2015-07-07T02:34:36.665Z,21.1
2015-07-07T02:34:54.884Z,21.2
2015-07-07T02:35:13.119Z,21.1
2015-07-07T02:35:31.369Z,21.1
2015-07-07T02:35:49.604Z,21.1
2015-07-07T02:36:07.840Z,21.1
2015-07-07T02:36:26.074Z,20.9
2015-07-07T02:36:44.309Z,21
2015-07-07T02:37:02.561Z,20.9
2015-07-07T02:37:20.795Z,21
2015-07-07T02:37:39.030Z,20.9
2015-07-07T02:37:57.264Z,21
2015-07-07T02:38:15.500Z,20.9
2015-07-07T02:38:33.735Z,20.9
2015-07-07T02:38:51.985Z,20.8
2015-07-07T02:39:10.221Z,20.7
2015-07-07T02:39:28.455Z,20.7
2015-07-07T02:39:46.705Z,20.5
2015-07-07T02:40:04.942Z,20.6
2015-07-07T02:40:23.176Z,20.7
2015-07-07T02:40:41.411Z,20.6
2015-07-07T02:40:59.661Z,20.6
2015-07-07T02:41:17.897Z,20.6
2015-07-07T02:41:36.131Z,20.6
2015-07-07T02:41:54.366Z,20.6
2015-07-07T02:42:12.618Z,20.6
2015-07-07T02:42:30.852Z,20.6
2015-07-07T02:42:49.086Z,20.5
2015-07-07T02:43:07.321Z,20.4
2015-07-07T02:43:25.573Z,20.5
2015-07-07T02:43:43.807Z,20.5
2015-07-07T02:44:02.042Z,20.6
2015-07-07T02:44:20.294Z,20.6
2015-07-07T02:44:38.528Z,20.5
2015-07-07T02:44:56.762Z,20.6
2015-07-07T02:45:14.998Z,20.5
2015-07-07T02:45:33.232Z,20.5
2015-07-07T02:45:51.466Z,20.5
2015-07-07T02:46:09.716Z,20.6
2015-07-07T02:46:27.954Z,20.7
2015-07-07T02:46:46.188Z,20.7
2015-07-07T02:47:04.438Z,20.6
2015-07-07T02:47:22.675Z,20.6
2015-07-07T02:47:40.909Z,20.6
2015-07-07T02:47:59.143Z,20.5
2015-07-07T02:48:17.395Z,20.6
2015-07-07T02:48:35.630Z,20.6
2015-07-07T02:48:53.864Z,20.5
2015-07-07T02:49:12.098Z,20.5
2015-07-07T02:49:30.349Z,20.5
2015-07-07T02:49:48.584Z,20.5
2015-07-07T02:50:06.818Z,20.5
2015-07-07T02:50:25.071Z,20.6
2015-07-07T02:50:43.306Z,20.5
2015-07-07T02:51:01.540Z,20.6
2015-07-07T02:51:19.774Z,20.5
2015-07-07T02:51:38.011Z,20.4
2015-07-07T02:51:56.245Z,20.4
2015-07-07T02:52:14.479Z,20.3
2015-07-07T02:52:32.731Z,20.3
2015-07-07T02:52:50.966Z,20.4
2015-07-07T02:53:09.216Z,20.5
2015-07-07T02:53:27.450Z,20.5
2015-07-07T02:53:45.702Z,20.4
2015-07-07T02:54:03.921Z,20.4
2015-07-07T02:54:22.171Z,20.4
2015-07-07T02:54:40.407Z,20.4
2015-07-07T02:54:58.657Z,20.4
2015-07-07T02:55:16.892Z,20.5
2015-07-07T02:55:35.128Z,20.4
2015-07-07T02:55:53.362Z,20.5
2015-07-07T02:56:11.597Z,20.5
2015-07-07T02:56:29.831Z,20.5
2015-07-07T02:56:48.083Z,20.6
2015-07-07T02:57:06.318Z,20.7
2015-07-07T02:57:24.552Z,20.8
2015-07-07T02:57:42.803Z,20.8
2015-07-07T02:58:01.037Z,20.8
2015-07-07T02:58:19.272Z,20.8
2015-07-07T02:58:37.509Z,20.9
2015-07-07T02:58:55.759Z,20.9
2015-07-07T02:59:13.993Z,20.9
2015-07-07T02:59:32.228Z,20.9
2015-07-07T02:59:50.480Z,20.8
2015-07-07T03:00:08.714Z,20.8
2015-07-07T03:00:26.949Z,20.8
2015-07-07T03:00:45.201Z,20.8
2015-07-07T03:01:03.435Z,20.9
2015-07-07T03:01:21.669Z,20.8
2015-07-07T03:01:39.906Z,20.7
2015-07-07T03:01:58.140Z,20.8
2015-07-07T03:02:16.390Z,20.8
2015-07-07T03:02:34.624Z,20.8
2015-07-07T03:02:52.861Z,20.7
2015-07-07T03:03:11.095Z,20.7
2015-07-07T03:03:29.345Z,20.6
2015-07-07T03:03:47.581Z,20.5
2015-07-07T03:04:05.831Z,20.5
2015-07-07T03:04:24.065Z,20.5
2015-07-07T03:04:42.299Z,20.6
2015-07-07T03:05:00.552Z,20.7
2015-07-07T03:05:18.787Z,20.7
2015-07-07T03:05:37.021Z,20.8
2015-07-07T03:05:55.272Z,20.8
2015-07-07T03:06:13.506Z,20.7
2015-07-07T03:06:31.741Z,20.7
2015-07-07T03:06:49.994Z,20.6
2015-07-07T03:07:08.228Z,20.5
2015-07-07T03:07:26.478Z,20.6
2015-07-07T03:07:44.713Z,20.6
2015-07-07T03:08:02.949Z,20.6
2015-07-07T03:08:21.183Z,20.6
2015-07-07T03:08:39.433Z,20.6
2015-07-07T03:08:57.670Z,20.7
2015-07-07T03:09:15.904Z,20.7
2015-07-07T03:09:34.138Z,20.7
2015-07-07T03:09:52.388Z,20.8
2015-07-07T03:10:10.624Z,20.8
2015-07-07T03:10:28.874Z,20.8
2015-07-07T03:10:47.093Z,20.8
2015-07-07T03:11:05.346Z,20.9
2015-07-07T03:11:23.596Z,20.9
2015-07-07T03:11:41.814Z,20.9
2015-07-07T03:12:00.064Z,20.9
2015-07-07T03:12:18.300Z,20.9
2015-07-07T03:12:36.534Z,20.8
2015-07-07T03:12:54.784Z,20.7
2015-07-07T03:13:13.021Z,20.7
2015-07-07T03:13:31.256Z,20.6
2015-07-07T03:13:49.506Z,20.7
2015-07-07T03:14:07.741Z,20.6
2015-07-07T03:14:25.991Z,20.6
2015-07-07T03:14:44.226Z,20.6
2015-07-07T03:15:02.460Z,20.6
2015-07-07T03:15:20.696Z,20.6
2015-07-07T03:15:38.931Z,20.6
2015-07-07T03:15:57.165Z,20.7
2015-07-07T03:16:15.402Z,20.6
2015-07-07T03:16:33.652Z,20.7
2015-07-07T03:16:51.902Z,20.8
2015-07-07T03:17:10.138Z,20.8
2015-07-07T03:17:28.388Z,20.7
2015-07-07T03:17:46.622Z,20.6
2015-07-07T03:18:04.857Z,20.6
2015-07-07T03:18:23.093Z,20.7
2015-07-07T03:18:41.343Z,20.6
2015-07-07T03:18:59.577Z,20.6
2015-07-07T03:19:17.829Z,20.6
2015-07-07T03:19:36.064Z,20.7
2015-07-07T03:19:54.298Z,20.7
2015-07-07T03:20:12.551Z,20.6
2015-07-07T03:20:30.785Z,20.6
2015-07-07T03:20:49.035Z,20.6
2015-07-07T03:21:07.270Z,20.6
2015-07-07T03:21:25.505Z,20.7
2015-07-07T03:21:43.740Z,20.6
2015-07-07T03:22:01.974Z,20.6
2015-07-07T03:22:20.210Z,20.6
2015-07-07T03:22:38.460Z,20.7
2015-07-07T03:22:56.695Z,20.7
2015-07-07T03:23:14.931Z,20.7
2015-07-07T03:23:33.165Z,20.6
2015-07-07T03:23:51.400Z,20.7
2015-07-07T03:24:09.650Z,20.7
2015-07-07T03:24:27.886Z,20.6
2015-07-07T03:24:46.121Z,20.6
2015-07-07T03:25:04.355Z,20.6
2015-07-07T03:25:22.607Z,20.5
2015-07-07T03:25:40.841Z,20.6
2015-07-07T03:25:59.076Z,20.6
2015-07-07T03:26:17.310Z,20.6
2015-07-07T03:26:35.561Z,20.6
2015-07-07T03:26:53.795Z,20.6
2015-07-07T03:27:12.045Z,20.6
2015-07-07T03:27:30.283Z,20.6
2015-07-07T03:27:48.517Z,20.5
2015-07-07T03:28:06.752Z,20.5
2015-07-07T03:28:24.987Z,20.4
2015-07-07T03:28:43.221Z,20.4
2015-07-07T03:29:01.471Z,20.4
2015-07-07T03:29:19.721Z,20.5
2015-07-07T03:29:37.959Z,20.6
2015-07-07T03:29:56.193Z,20.6
2015-07-07T03:30:14.427Z,20.6
2015-07-07T03:30:32.664Z,20.6
2015-07-07T03:30:50.914Z,20.7
2015-07-07T03:31:09.148Z,20.6
2015-07-07T03:31:27.383Z,20.7
2015-07-07T03:31:45.619Z,20.7
2015-07-07T03:32:03.869Z,20.7
2015-07-07T03:32:22.103Z,20.6
2015-07-07T03:32:40.340Z,20.7
2015-07-07T03:32:58.574Z,20.7
2015-07-07T03:33:16.808Z,20.6
2015-07-07T03:33:35.058Z,20.7
2015-07-07T03:33:53.295Z,20.7
2015-07-07T03:34:11.545Z,20.7
2015-07-07T03:34:29.779Z,20.6
2015-07-07T03:34:48.031Z,20.7
2015-07-07T03:35:06.266Z,20.7
2015-07-07T03:35:24.500Z,20.7
2015-07-07T03:35:42.736Z,20.6
2015-07-07T03:36:00.986Z,20.6
2015-07-07T03:36:19.221Z,20.5
2015-07-07T03:36:37.455Z,20.5
2015-07-07T03:36:55.691Z,20.4
2015-07-07T03:37:13.941Z,20.3
2015-07-07T03:37:32.176Z,20.3
2015-07-07T03:37:50.412Z,20.3
2015-07-07T03:38:08.662Z,20.3
2015-07-07T03:38:26.897Z,20.3
2015-07-07T03:38:45.133Z,20.4
2015-07-07T03:39:03.367Z,20.4
2015-07-07T03:39:21.602Z,20.4
2015-07-07T03:39:39.852Z,20.5
2015-07-07T03:39:58.088Z,20.5
2015-07-07T03:40:16.338Z,20.7
2015-07-07T03:40:34.588Z,20.6
2015-07-07T03:40:52.824Z,20.6
2015-07-07T03:41:11.059Z,20.7
2015-07-07T03:41:29.309Z,20.6
2015-07-07T03:41:47.544Z,20.8
2015-07-07T03:42:05.779Z,20.7
2015-07-07T03:42:24.013Z,20.7
2015-07-07T03:42:42.247Z,20.6
2015-07-07T03:43:00.484Z,20.7
2015-07-07T03:43:18.734Z,20.7
2015-07-07T03:43:36.968Z,20.7
2015-07-07T03:43:55.204Z,20.7
2015-07-07T03:44:13.454Z,20.7
2015-07-07T03:44:31.704Z,20.8
2015-07-07T03:44:49.925Z,20.8
2015-07-07T03:45:08.175Z,20.7
2015-07-07T03:45:26.410Z,20.7
2015-07-07T03:45:44.644Z,20.7
2015-07-07T03:46:02.896Z,20.7
2015-07-07T03:46:21.130Z,20.8
2015-07-07T03:46:39.365Z,20.9
2015-07-07T03:46:57.617Z,21
2015-07-07T03:47:15.867Z,21
2015-07-07T03:47:34.101Z,21
2015-07-07T03:47:52.351Z,21
2015-07-07T03:48:10.587Z,20.9
2015-07-07T03:48:28.822Z,20.9
2015-07-07T03:48:47.072Z,20.9
2015-07-07T03:49:05.308Z,20.9
2015-07-07T03:49:23.543Z,20.9
2015-07-07T03:49:41.777Z,21
2015-07-07T03:50:00.013Z,20.9
2015-07-07T03:50:18.248Z,20.8
2015-07-07T03:50:36.498Z,20.8
2015-07-07T03:50:54.732Z,20.9
2015-07-07T03:51:12.984Z,21
2015-07-07T03:51:31.203Z,21
2015-07-07T03:51:49.437Z,21
2015-07-07T03:52:07.689Z,21.1
2015-07-07T03:52:25.924Z,21.1
2015-07-07T03:52:44.158Z,21.1
2015-07-07T03:53:02.392Z,21
2015-07-07T03:53:20.660Z,21
2015-07-07T03:53:38.879Z,20.9
2015-07-07T03:53:57.113Z,21
2015-07-07T03:54:15.366Z,21.1
2015-07-07T03:54:33.600Z,21.2
2015-07-07T03:54:51.835Z,21.1
2015-07-07T03:55:10.069Z,21
2015-07-07T03:55:28.320Z,21
2015-07-07T03:55:46.555Z,21
2015-07-07T03:56:04.805Z,21
2015-07-07T03:56:23.042Z,21
2015-07-07T03:56:41.276Z,21.1
2015-07-07T03:56:59.526Z,21.2
2015-07-07T03:57:17.762Z,21.2
2015-07-07T03:57:35.996Z,21.2
2015-07-07T03:57:54.246Z,21.1
2015-07-07T03:58:12.480Z,21.1
2015-07-07T03:58:30.717Z,21.1
2015-07-07T03:58:48.967Z,21.2
2015-07-07T03:59:07.201Z,21.2
2015-07-07T03:59:25.438Z,21.2
2015-07-07T03:59:43.031Z,21.3
2015-07-07T04:00:01.266Z,21.3
2015-07-07T04:00:19.500Z,21.3
2015-07-07T04:00:37.752Z,21.3
2015-07-07T04:00:55.986Z,21.2
2015-07-07T04:01:14.221Z,21.2
2015-07-07T04:01:32.473Z,21.1
2015-07-07T04:01:50.723Z,21.1
2015-07-07T04:02:08.942Z,21
2015-07-07T04:02:27.178Z,21
2015-07-07T04:02:45.428Z,20.9
2015-07-07T04:03:03.662Z,20.9
2015-07-07T04:03:21.897Z,20.9
2015-07-07T04:03:40.133Z,20.9
2015-07-07T04:03:58.227Z,20.8
2015-07-07T04:04:16.461Z,20.9
2015-07-07T04:04:34.698Z,21